Pagina principale
METAR-TAF:

METAR-TAF

Aeroporti :

Jendouba, Tunisia

latitudine: 36-29N, longitudine: 008-48E, altezza: 143 m

Osservazione

Il bollettino è stato emesso 48 minuti fa, alle 10:00 UTC
Vento 2 kt da direzioni variabili
Temperature 17°C
Umidità 68%
Pressione 1014 hPa
Visibilità 10 km o più
Nubi sparse ad un'altezza di 2000 ft
Nubi sparse ad un'altezza di 3000 ft

METAR: DTTN 091000Z VRB02KT 9999 SCT020 SCT030 17/11 Q1014

Ora: 11:48 (10:48 UTC)


TAF: mancante

Osservazioni e previsioni meteorologiche di più di 4000 aeroporti (messaggi METAR e TAF).

Le stazioni disponibili sono rappresentate dai dischi gialli e rossi sulla carta.

Puntare il mouse per vedere il nome della stazione.

Clicca sopra per visualizzare le osservazioni e previsioni meteorologiche.

Per cambiare la mappa : fare clic sui pulsanti verdi con una croce nera per ingrandire, il pulsante verde con un trattino per diminuire, o sulla freccia verde per le mappe adiacenti.


METAR-TAF: